sensor_id;sensor_type;location;lat;lon;timestamp;P1;durP1;ratioP1;P2;durP2;ratioP2
44816;SDS011;30529;53.570;9.964;2022-09-17T00:00:56;21.43;;;3.47;;
44816;SDS011;30529;53.570;9.964;2022-09-17T00:03:24;25.97;;;4.30;;
44816;SDS011;30529;53.570;9.964;2022-09-17T00:05:58;19.73;;;3.73;;
44816;SDS011;30529;53.570;9.964;2022-09-17T00:08:28;14.37;;;2.97;;
44816;SDS011;30529;53.570;9.964;2022-09-17T00:10:54;21.23;;;4.40;;
44816;SDS011;30529;53.570;9.964;2022-09-17T00:13:21;21.03;;;4.63;;
44816;SDS011;30529;53.570;9.964;2022-09-17T00:15:47;15.07;;;3.17;;
44816;SDS011;30529;53.570;9.964;2022-09-17T00:18:15;18.87;;;4.07;;
44816;SDS011;30529;53.570;9.964;2022-09-17T00:20:42;24.60;;;4.07;;
44816;SDS011;30529;53.570;9.964;2022-09-17T00:23:11;18.63;;;3.27;;
44816;SDS011;30529;53.570;9.964;2022-09-17T00:25:42;22.87;;;4.37;;
44816;SDS011;30529;53.570;9.964;2022-09-17T00:28:11;19.97;;;3.53;;
44816;SDS011;30529;53.570;9.964;2022-09-17T00:30:39;21.47;;;5.60;;
44816;SDS011;30529;53.570;9.964;2022-09-17T00:33:15;21.50;;;3.77;;
44816;SDS011;30529;53.570;9.964;2022-09-17T00:35:42;18.60;;;3.83;;
44816;SDS011;30529;53.570;9.964;2022-09-17T00:38:09;15.00;;;3.40;;
44816;SDS011;30529;53.570;9.964;2022-09-17T00:40:36;20.77;;;3.83;;
44816;SDS011;30529;53.570;9.964;2022-09-17T00:43:03;13.30;;;2.87;;
44816;SDS011;30529;53.570;9.964;2022-09-17T00:45:29;17.33;;;3.47;;
44816;SDS011;30529;53.570;9.964;2022-09-17T00:47:57;17.57;;;3.47;;
44816;SDS011;30529;53.570;9.964;2022-09-17T00:50:27;14.50;;;3.20;;
44816;SDS011;30529;53.570;9.964;2022-09-17T00:53:00;18.17;;;3.23;;
44816;SDS011;30529;53.570;9.964;2022-09-17T00:55:39;23.20;;;3.53;;
44816;SDS011;30529;53.570;9.964;2022-09-17T00:58:10;13.37;;;3.67;;
44816;SDS011;30529;53.570;9.964;2022-09-17T01:00:37;16.30;;;3.60;;
44816;SDS011;30529;53.570;9.964;2022-09-17T01:03:04;11.13;;;3.17;;
44816;SDS011;30529;53.570;9.964;2022-09-17T01:05:35;15.97;;;3.40;;
44816;SDS011;30529;53.570;9.964;2022-09-17T01:16:37;13.23;;;3.00;;
44816;SDS011;30529;53.570;9.964;2022-09-17T01:27:47;17.43;;;3.37;;
44816;SDS011;30529;53.570;9.964;2022-09-17T01:33:25;15.20;;;2.67;;
44816;SDS011;30529;53.570;9.964;2022-09-17T01:36:21;10.07;;;2.40;;
44816;SDS011;30529;53.570;9.964;2022-09-17T01:44:16;20.97;;;3.20;;
44816;SDS011;30529;53.570;9.964;2022-09-17T01:46:52;10.83;;;2.40;;
44816;SDS011;30529;53.570;9.964;2022-09-17T01:49:25;12.07;;;3.13;;
44816;SDS011;30529;53.570;9.964;2022-09-17T01:51:54;12.83;;;2.77;;
44816;SDS011;30529;53.570;9.964;2022-09-17T01:54:24;15.37;;;2.97;;
44816;SDS011;30529;53.570;9.964;2022-09-17T01:59:59;12.00;;;2.63;;
44816;SDS011;30529;53.570;9.964;2022-09-17T02:02:29;11.97;;;2.80;;
44816;SDS011;30529;53.570;9.964;2022-09-17T02:05:21;16.53;;;2.70;;
44816;SDS011;30529;53.570;9.964;2022-09-17T02:07:50;10.37;;;2.60;;
44816;SDS011;30529;53.570;9.964;2022-09-17T02:10:26;16.37;;;2.93;;
44816;SDS011;30529;53.570;9.964;2022-09-17T02:12:58;17.57;;;3.00;;
44816;SDS011;30529;53.570;9.964;2022-09-17T02:15:35;15.93;;;2.63;;
44816;SDS011;30529;53.570;9.964;2022-09-17T02:18:07;16.50;;;3.17;;
44816;SDS011;30529;53.570;9.964;2022-09-17T02:20:45;18.87;;;3.30;;
44816;SDS011;30529;53.570;9.964;2022-09-17T02:23:19;12.77;;;2.90;;
44816;SDS011;30529;53.570;9.964;2022-09-17T02:25:51;17.50;;;3.33;;
44816;SDS011;30529;53.570;9.964;2022-09-17T02:30:48;12.00;;;3.50;;
44816;SDS011;30529;53.570;9.964;2022-09-17T02:33:14;17.87;;;3.27;;
44816;SDS011;30529;53.570;9.964;2022-09-17T02:35:46;11.80;;;2.60;;
44816;SDS011;30529;53.570;9.964;2022-09-17T02:38:12;17.17;;;3.33;;
44816;SDS011;30529;53.570;9.964;2022-09-17T02:40:40;15.57;;;2.93;;
44816;SDS011;30529;53.570;9.964;2022-09-17T02:43:33;18.10;;;3.00;;
44816;SDS011;30529;53.570;9.964;2022-09-17T02:53:54;18.43;;;3.00;;
44816;SDS011;30529;53.570;9.964;2022-09-17T02:56:39;12.70;;;2.60;;
44816;SDS011;30529;53.570;9.964;2022-09-17T02:59:29;14.97;;;2.60;;
44816;SDS011;30529;53.570;9.964;2022-09-17T03:02:08;11.67;;;2.30;;
44816;SDS011;30529;53.570;9.964;2022-09-17T03:04:44;8.37;;;2.20;;
44816;SDS011;30529;53.570;9.964;2022-09-17T03:07:13;17.20;;;2.70;;
44816;SDS011;30529;53.570;9.964;2022-09-17T03:09:41;11.60;;;2.30;;
44816;SDS011;30529;53.570;9.964;2022-09-17T03:12:08;17.53;;;3.47;;
44816;SDS011;30529;53.570;9.964;2022-09-17T03:14:35;13.20;;;3.07;;
44816;SDS011;30529;53.570;9.964;2022-09-17T03:17:02;12.70;;;2.50;;
44816;SDS011;30529;53.570;9.964;2022-09-17T03:19:28;11.37;;;2.80;;
44816;SDS011;30529;53.570;9.964;2022-09-17T03:21:54;15.67;;;3.37;;
44816;SDS011;30529;53.570;9.964;2022-09-17T03:24:20;9.87;;;2.23;;
44816;SDS011;30529;53.570;9.964;2022-09-17T03:26:46;12.30;;;3.77;;
44816;SDS011;30529;53.570;9.964;2022-09-17T03:29:14;11.97;;;2.67;;
44816;SDS011;30529;53.570;9.964;2022-09-17T03:31:40;7.50;;;2.00;;
44816;SDS011;30529;53.570;9.964;2022-09-17T03:34:10;8.00;;;2.07;;
44816;SDS011;30529;53.570;9.964;2022-09-17T03:36:36;10.63;;;2.40;;
44816;SDS011;30529;53.570;9.964;2022-09-17T03:39:02;14.47;;;2.87;;
44816;SDS011;30529;53.570;9.964;2022-09-17T03:41:28;10.57;;;2.90;;
44816;SDS011;30529;53.570;9.964;2022-09-17T03:43:54;10.17;;;2.27;;
44816;SDS011;30529;53.570;9.964;2022-09-17T03:46:20;10.77;;;2.20;;
44816;SDS011;30529;53.570;9.964;2022-09-17T03:48:47;8.27;;;2.30;;
44816;SDS011;30529;53.570;9.964;2022-09-17T03:51:13;8.80;;;1.97;;
44816;SDS011;30529;53.570;9.964;2022-09-17T03:53:39;8.50;;;2.47;;
44816;SDS011;30529;53.570;9.964;2022-09-17T03:56:05;15.83;;;2.73;;
44816;SDS011;30529;53.570;9.964;2022-09-17T03:58:32;11.60;;;2.63;;
44816;SDS011;30529;53.570;9.964;2022-09-17T04:00:58;9.40;;;1.70;;
44816;SDS011;30529;53.570;9.964;2022-09-17T04:03:24;11.43;;;2.00;;
44816;SDS011;30529;53.570;9.964;2022-09-17T04:05:52;7.70;;;1.80;;
44816;SDS011;30529;53.570;9.964;2022-09-17T04:08:18;10.50;;;1.80;;
44816;SDS011;30529;53.570;9.964;2022-09-17T04:10:44;7.13;;;1.80;;
44816;SDS011;30529;53.570;9.964;2022-09-17T04:13:11;8.53;;;2.20;;
44816;SDS011;30529;53.570;9.964;2022-09-17T04:15:38;10.33;;;2.40;;
44816;SDS011;30529;53.570;9.964;2022-09-17T04:18:04;8.90;;;1.93;;
44816;SDS011;30529;53.570;9.964;2022-09-17T04:20:30;9.57;;;2.30;;
44816;SDS011;30529;53.570;9.964;2022-09-17T04:22:56;10.00;;;2.40;;
44816;SDS011;30529;53.570;9.964;2022-09-17T04:25:23;9.93;;;2.30;;
44816;SDS011;30529;53.570;9.964;2022-09-17T04:27:49;10.70;;;2.47;;
44816;SDS011;30529;53.570;9.964;2022-09-17T04:30:15;8.70;;;2.40;;
44816;SDS011;30529;53.570;9.964;2022-09-17T04:32:42;20.10;;;3.10;;
44816;SDS011;30529;53.570;9.964;2022-09-17T04:35:09;11.97;;;2.50;;
44816;SDS011;30529;53.570;9.964;2022-09-17T04:37:36;11.43;;;2.63;;
44816;SDS011;30529;53.570;9.964;2022-09-17T04:40:02;11.93;;;2.20;;
44816;SDS011;30529;53.570;9.964;2022-09-17T04:42:29;12.10;;;2.57;;
44816;SDS011;30529;53.570;9.964;2022-09-17T04:44:55;12.60;;;2.30;;
44816;SDS011;30529;53.570;9.964;2022-09-17T04:47:22;8.23;;;2.03;;
44816;SDS011;30529;53.570;9.964;2022-09-17T04:49:49;5.90;;;1.40;;
44816;SDS011;30529;53.570;9.964;2022-09-17T04:52:15;9.37;;;2.33;;
44816;SDS011;30529;53.570;9.964;2022-09-17T04:54:41;6.80;;;1.90;;
44816;SDS011;30529;53.570;9.964;2022-09-17T04:57:07;10.00;;;2.17;;
44816;SDS011;30529;53.570;9.964;2022-09-17T04:59:33;13.07;;;2.07;;
44816;SDS011;30529;53.570;9.964;2022-09-17T05:01:59;9.17;;;2.10;;
44816;SDS011;30529;53.570;9.964;2022-09-17T05:04:25;9.07;;;2.50;;
44816;SDS011;30529;53.570;9.964;2022-09-17T05:06:51;11.17;;;2.30;;
44816;SDS011;30529;53.570;9.964;2022-09-17T05:09:17;9.03;;;1.67;;
44816;SDS011;30529;53.570;9.964;2022-09-17T05:11:44;10.97;;;2.20;;
44816;SDS011;30529;53.570;9.964;2022-09-17T05:14:10;13.27;;;2.20;;
44816;SDS011;30529;53.570;9.964;2022-09-17T05:16:37;9.87;;;2.53;;
44816;SDS011;30529;53.570;9.964;2022-09-17T05:19:03;11.30;;;2.90;;
44816;SDS011;30529;53.570;9.964;2022-09-17T05:21:29;9.97;;;1.90;;
44816;SDS011;30529;53.570;9.964;2022-09-17T05:23:55;11.27;;;2.27;;
44816;SDS011;30529;53.570;9.964;2022-09-17T05:26:21;7.63;;;2.20;;
44816;SDS011;30529;53.570;9.964;2022-09-17T05:28:47;8.50;;;2.13;;
44816;SDS011;30529;53.570;9.964;2022-09-17T05:31:13;10.80;;;2.17;;
44816;SDS011;30529;53.570;9.964;2022-09-17T05:33:40;12.03;;;1.87;;
44816;SDS011;30529;53.570;9.964;2022-09-17T05:36:05;13.80;;;2.57;;
44816;SDS011;30529;53.570;9.964;2022-09-17T05:38:32;12.77;;;2.63;;
44816;SDS011;30529;53.570;9.964;2022-09-17T05:41:02;12.10;;;2.53;;
44816;SDS011;30529;53.570;9.964;2022-09-17T05:43:29;7.70;;;1.83;;
44816;SDS011;30529;53.570;9.964;2022-09-17T05:45:59;9.23;;;2.50;;
44816;SDS011;30529;53.570;9.964;2022-09-17T05:48:29;14.73;;;2.73;;
44816;SDS011;30529;53.570;9.964;2022-09-17T05:50:55;10.47;;;2.20;;
44816;SDS011;30529;53.570;9.964;2022-09-17T05:53:22;7.50;;;2.63;;
44816;SDS011;30529;53.570;9.964;2022-09-17T05:55:48;11.57;;;2.77;;
44816;SDS011;30529;53.570;9.964;2022-09-17T05:58:15;11.07;;;1.93;;
44816;SDS011;30529;53.570;9.964;2022-09-17T06:00:43;14.20;;;2.27;;
44816;SDS011;30529;53.570;9.964;2022-09-17T06:03:11;10.13;;;2.13;;
44816;SDS011;30529;53.570;9.964;2022-09-17T06:05:39;10.00;;;1.90;;
44816;SDS011;30529;53.570;9.964;2022-09-17T06:08:06;16.97;;;2.53;;
44816;SDS011;30529;53.570;9.964;2022-09-17T06:10:35;9.43;;;2.03;;
44816;SDS011;30529;53.570;9.964;2022-09-17T06:13:02;16.30;;;3.03;;
44816;SDS011;30529;53.570;9.964;2022-09-17T06:15:28;10.07;;;2.50;;
44816;SDS011;30529;53.570;9.964;2022-09-17T06:17:54;10.83;;;2.53;;
44816;SDS011;30529;53.570;9.964;2022-09-17T06:20:21;7.67;;;1.93;;
44816;SDS011;30529;53.570;9.964;2022-09-17T06:22:47;12.20;;;2.50;;
44816;SDS011;30529;53.570;9.964;2022-09-17T06:25:13;17.67;;;2.20;;
44816;SDS011;30529;53.570;9.964;2022-09-17T06:27:39;10.07;;;2.20;;
44816;SDS011;30529;53.570;9.964;2022-09-17T06:30:05;11.83;;;2.20;;
44816;SDS011;30529;53.570;9.964;2022-09-17T06:32:32;7.77;;;1.93;;
44816;SDS011;30529;53.570;9.964;2022-09-17T06:34:58;10.30;;;2.27;;
44816;SDS011;30529;53.570;9.964;2022-09-17T06:37:27;6.87;;;2.17;;
44816;SDS011;30529;53.570;9.964;2022-09-17T06:39:54;10.37;;;2.20;;
44816;SDS011;30529;53.570;9.964;2022-09-17T06:42:21;9.33;;;1.80;;
44816;SDS011;30529;53.570;9.964;2022-09-17T06:44:47;10.50;;;2.47;;
44816;SDS011;30529;53.570;9.964;2022-09-17T06:47:13;7.17;;;1.57;;
44816;SDS011;30529;53.570;9.964;2022-09-17T06:49:39;10.97;;;2.10;;
44816;SDS011;30529;53.570;9.964;2022-09-17T06:52:05;13.63;;;1.97;;
44816;SDS011;30529;53.570;9.964;2022-09-17T06:54:31;9.20;;;2.20;;
44816;SDS011;30529;53.570;9.964;2022-09-17T06:56:57;6.33;;;1.70;;
44816;SDS011;30529;53.570;9.964;2022-09-17T06:59:23;5.90;;;1.30;;
44816;SDS011;30529;53.570;9.964;2022-09-17T07:01:51;10.53;;;1.50;;
44816;SDS011;30529;53.570;9.964;2022-09-17T07:04:17;4.80;;;1.63;;
44816;SDS011;30529;53.570;9.964;2022-09-17T07:06:43;4.50;;;1.10;;
44816;SDS011;30529;53.570;9.964;2022-09-17T07:09:10;6.57;;;1.50;;
44816;SDS011;30529;53.570;9.964;2022-09-17T07:11:39;5.53;;;1.40;;
44816;SDS011;30529;53.570;9.964;2022-09-17T07:14:05;5.07;;;1.33;;
44816;SDS011;30529;53.570;9.964;2022-09-17T07:16:31;4.90;;;1.10;;
44816;SDS011;30529;53.570;9.964;2022-09-17T07:19:01;5.47;;;1.70;;
44816;SDS011;30529;53.570;9.964;2022-09-17T07:21:28;5.03;;;1.00;;
44816;SDS011;30529;53.570;9.964;2022-09-17T07:23:54;3.90;;;1.20;;
44816;SDS011;30529;53.570;9.964;2022-09-17T07:26:20;4.43;;;1.40;;
44816;SDS011;30529;53.570;9.964;2022-09-17T07:28:46;2.90;;;0.90;;
44816;SDS011;30529;53.570;9.964;2022-09-17T07:31:12;5.50;;;1.30;;
44816;SDS011;30529;53.570;9.964;2022-09-17T07:33:38;4.73;;;1.10;;
44816;SDS011;30529;53.570;9.964;2022-09-17T07:36:06;4.20;;;1.27;;
44816;SDS011;30529;53.570;9.964;2022-09-17T07:38:36;3.67;;;0.90;;
44816;SDS011;30529;53.570;9.964;2022-09-17T07:43:34;5.90;;;1.13;;
44816;SDS011;30529;53.570;9.964;2022-09-17T07:46:01;6.90;;;1.70;;
44816;SDS011;30529;53.570;9.964;2022-09-17T07:48:29;6.73;;;1.80;;
44816;SDS011;30529;53.570;9.964;2022-09-17T07:50:55;7.90;;;1.97;;
44816;SDS011;30529;53.570;9.964;2022-09-17T07:53:22;8.67;;;2.00;;
44816;SDS011;30529;53.570;9.964;2022-09-17T07:55:51;8.30;;;1.53;;
44816;SDS011;30529;53.570;9.964;2022-09-17T07:58:20;7.07;;;1.80;;
44816;SDS011;30529;53.570;9.964;2022-09-17T08:01:04;6.93;;;1.97;;
44816;SDS011;30529;53.570;9.964;2022-09-17T08:03:33;8.40;;;2.00;;
44816;SDS011;30529;53.570;9.964;2022-09-17T08:06:00;7.13;;;1.37;;
44816;SDS011;30529;53.570;9.964;2022-09-17T08:08:29;6.27;;;1.60;;
44816;SDS011;30529;53.570;9.964;2022-09-17T08:11:03;8.63;;;1.60;;
44816;SDS011;30529;53.570;9.964;2022-09-17T08:13:32;7.00;;;1.70;;
44816;SDS011;30529;53.570;9.964;2022-09-17T08:16:17;8.80;;;1.57;;
44816;SDS011;30529;53.570;9.964;2022-09-17T08:18:44;8.87;;;1.40;;
44816;SDS011;30529;53.570;9.964;2022-09-17T08:21:12;8.43;;;2.13;;
44816;SDS011;30529;53.570;9.964;2022-09-17T08:23:41;8.97;;;1.80;;
44816;SDS011;30529;53.570;9.964;2022-09-17T08:26:15;8.07;;;1.47;;
44816;SDS011;30529;53.570;9.964;2022-09-17T08:28:50;11.37;;;2.23;;
44816;SDS011;30529;53.570;9.964;2022-09-17T08:31:21;9.03;;;1.93;;
44816;SDS011;30529;53.570;9.964;2022-09-17T08:33:49;7.43;;;1.77;;
44816;SDS011;30529;53.570;9.964;2022-09-17T08:36:16;7.70;;;2.00;;
44816;SDS011;30529;53.570;9.964;2022-09-17T08:38:43;6.63;;;1.37;;
44816;SDS011;30529;53.570;9.964;2022-09-17T08:46:31;8.73;;;1.40;;
44816;SDS011;30529;53.570;9.964;2022-09-17T08:49:06;6.00;;;1.60;;
44816;SDS011;30529;53.570;9.964;2022-09-17T08:54:58;8.63;;;1.60;;
44816;SDS011;30529;53.570;9.964;2022-09-17T09:00:59;7.07;;;1.47;;
44816;SDS011;30529;53.570;9.964;2022-09-17T09:06:20;2.67;;;1.30;;
44816;SDS011;30529;53.570;9.964;2022-09-17T09:09:02;6.93;;;1.00;;
44816;SDS011;30529;53.570;9.964;2022-09-17T09:11:40;4.33;;;1.10;;
44816;SDS011;30529;53.570;9.964;2022-09-17T09:14:13;7.07;;;1.30;;
44816;SDS011;30529;53.570;9.964;2022-09-17T09:16:50;2.90;;;0.90;;
44816;SDS011;30529;53.570;9.964;2022-09-17T09:19:22;2.33;;;0.77;;
44816;SDS011;30529;53.570;9.964;2022-09-17T09:24:25;3.77;;;0.93;;
44816;SDS011;30529;53.570;9.964;2022-09-17T09:35:29;5.13;;;0.83;;
44816;SDS011;30529;53.570;9.964;2022-09-17T09:38:02;4.20;;;1.30;;
44816;SDS011;30529;53.570;9.964;2022-09-17T09:40:36;4.30;;;0.90;;
44816;SDS011;30529;53.570;9.964;2022-09-17T09:48:52;2.23;;;0.80;;
44816;SDS011;30529;53.570;9.964;2022-09-17T09:51:36;2.33;;;0.93;;
44816;SDS011;30529;53.570;9.964;2022-09-17T09:59:20;2.97;;;0.70;;
44816;SDS011;30529;53.570;9.964;2022-09-17T10:01:46;2.37;;;0.87;;
44816;SDS011;30529;53.570;9.964;2022-09-17T10:06:50;5.23;;;1.00;;
44816;SDS011;30529;53.570;9.964;2022-09-17T10:09:18;1.93;;;1.07;;
44816;SDS011;30529;53.570;9.964;2022-09-17T10:11:58;4.20;;;1.07;;
44816;SDS011;30529;53.570;9.964;2022-09-17T10:14:29;4.13;;;0.97;;
44816;SDS011;30529;53.570;9.964;2022-09-17T10:19:38;6.07;;;1.10;;
44816;SDS011;30529;53.570;9.964;2022-09-17T10:25:01;4.10;;;0.80;;
44816;SDS011;30529;53.570;9.964;2022-09-17T10:27:30;3.63;;;1.37;;
44816;SDS011;30529;53.570;9.964;2022-09-17T10:30:00;3.43;;;1.03;;
44816;SDS011;30529;53.570;9.964;2022-09-17T10:32:33;3.50;;;0.90;;
44816;SDS011;30529;53.570;9.964;2022-09-17T10:37:44;3.90;;;1.03;;
44816;SDS011;30529;53.570;9.964;2022-09-17T10:42:47;3.97;;;1.00;;
44816;SDS011;30529;53.570;9.964;2022-09-17T10:45:25;3.73;;;0.90;;
44816;SDS011;30529;53.570;9.964;2022-09-17T10:47:53;1.43;;;0.60;;
44816;SDS011;30529;53.570;9.964;2022-09-17T10:53:01;3.90;;;1.27;;
44816;SDS011;30529;53.570;9.964;2022-09-17T10:55:36;2.80;;;0.70;;
44816;SDS011;30529;53.570;9.964;2022-09-17T11:00:48;2.90;;;0.93;;
44816;SDS011;30529;53.570;9.964;2022-09-17T11:03:42;4.37;;;1.00;;
44816;SDS011;30529;53.570;9.964;2022-09-17T11:09:23;3.90;;;1.17;;
44816;SDS011;30529;53.570;9.964;2022-09-17T11:14:48;5.40;;;1.10;;
44816;SDS011;30529;53.570;9.964;2022-09-17T11:20:04;4.20;;;1.10;;
44816;SDS011;30529;53.570;9.964;2022-09-17T11:23:09;3.40;;;0.93;;
44816;SDS011;30529;53.570;9.964;2022-09-17T11:25:53;3.50;;;0.90;;
44816;SDS011;30529;53.570;9.964;2022-09-17T11:28:38;4.37;;;1.30;;
44816;SDS011;30529;53.570;9.964;2022-09-17T11:36:34;7.63;;;1.37;;
44816;SDS011;30529;53.570;9.964;2022-09-17T11:39:13;3.97;;;1.13;;
44816;SDS011;30529;53.570;9.964;2022-09-17T11:41:43;7.23;;;1.27;;
44816;SDS011;30529;53.570;9.964;2022-09-17T11:46:48;5.87;;;1.30;;
44816;SDS011;30529;53.570;9.964;2022-09-17T11:52:10;4.87;;;1.43;;
44816;SDS011;30529;53.570;9.964;2022-09-17T11:55:15;5.67;;;1.00;;
44816;SDS011;30529;53.570;9.964;2022-09-17T11:57:47;4.73;;;1.60;;
44816;SDS011;30529;53.570;9.964;2022-09-17T12:00:17;3.10;;;1.00;;
44816;SDS011;30529;53.570;9.964;2022-09-17T12:02:59;4.63;;;1.10;;
44816;SDS011;30529;53.570;9.964;2022-09-17T12:05:34;7.23;;;1.40;;
44816;SDS011;30529;53.570;9.964;2022-09-17T12:11:06;7.13;;;1.40;;
44816;SDS011;30529;53.570;9.964;2022-09-17T12:16:15;5.00;;;1.57;;
44816;SDS011;30529;53.570;9.964;2022-09-17T12:21:45;2.83;;;1.23;;
44816;SDS011;30529;53.570;9.964;2022-09-17T12:24:24;5.73;;;1.57;;
44816;SDS011;30529;53.570;9.964;2022-09-17T12:30:28;8.13;;;2.83;;
44816;SDS011;30529;53.570;9.964;2022-09-17T12:32:42;4.43;;;1.20;;
44816;SDS011;30529;53.570;9.964;2022-09-17T12:35:19;7.77;;;1.57;;
44816;SDS011;30529;53.570;9.964;2022-09-17T12:46:43;7.80;;;1.93;;
44816;SDS011;30529;53.570;9.964;2022-09-17T12:52:03;7.13;;;1.50;;
44816;SDS011;30529;53.570;9.964;2022-09-17T13:00:24;7.87;;;2.03;;
44816;SDS011;30529;53.570;9.964;2022-09-17T13:10:39;8.50;;;1.67;;
44816;SDS011;30529;53.570;9.964;2022-09-17T13:21:21;3.63;;;1.30;;
44816;SDS011;30529;53.570;9.964;2022-09-17T13:23:54;9.40;;;2.63;;
44816;SDS011;30529;53.570;9.964;2022-09-17T13:26:21;8.37;;;1.50;;
44816;SDS011;30529;53.570;9.964;2022-09-17T13:28:59;6.90;;;1.63;;
44816;SDS011;30529;53.570;9.964;2022-09-17T13:34:25;5.27;;;1.30;;
44816;SDS011;30529;53.570;9.964;2022-09-17T13:36:55;5.93;;;1.63;;
44816;SDS011;30529;53.570;9.964;2022-09-17T13:39:44;5.20;;;1.77;;
44816;SDS011;30529;53.570;9.964;2022-09-17T13:45:12;6.87;;;2.00;;
44816;SDS011;30529;53.570;9.964;2022-09-17T13:50:34;6.10;;;1.67;;
44816;SDS011;30529;53.570;9.964;2022-09-17T13:58:21;9.20;;;2.93;;
44816;SDS011;30529;53.570;9.964;2022-09-17T14:00:56;6.83;;;1.60;;
44816;SDS011;30529;53.570;9.964;2022-09-17T14:22:24;5.53;;;1.20;;
44816;SDS011;30529;53.570;9.964;2022-09-17T14:24:51;5.13;;;1.20;;
44816;SDS011;30529;53.570;9.964;2022-09-17T14:32:45;2.57;;;1.00;;
44816;SDS011;30529;53.570;9.964;2022-09-17T14:35:21;4.90;;;1.40;;
44816;SDS011;30529;53.570;9.964;2022-09-17T14:40:43;5.03;;;0.90;;
44816;SDS011;30529;53.570;9.964;2022-09-17T14:43:18;4.50;;;1.20;;
44816;SDS011;30529;53.570;9.964;2022-09-17T14:45:56;5.50;;;1.37;;
44816;SDS011;30529;53.570;9.964;2022-09-17T14:56:34;4.30;;;1.03;;
44816;SDS011;30529;53.570;9.964;2022-09-17T14:59:09;4.50;;;1.53;;
44816;SDS011;30529;53.570;9.964;2022-09-17T15:01:45;4.60;;;1.17;;
44816;SDS011;30529;53.570;9.964;2022-09-17T15:06:42;5.07;;;1.33;;
44816;SDS011;30529;53.570;9.964;2022-09-17T15:09:15;5.27;;;2.17;;
44816;SDS011;30529;53.570;9.964;2022-09-17T15:11:54;2.67;;;1.00;;
44816;SDS011;30529;53.570;9.964;2022-09-17T15:14:30;4.80;;;1.03;;
44816;SDS011;30529;53.570;9.964;2022-09-17T15:16:59;5.93;;;1.17;;
44816;SDS011;30529;53.570;9.964;2022-09-17T15:19:32;4.67;;;1.47;;
44816;SDS011;30529;53.570;9.964;2022-09-17T15:22:03;6.63;;;1.30;;
44816;SDS011;30529;53.570;9.964;2022-09-17T15:27:28;4.83;;;1.33;;
44816;SDS011;30529;53.570;9.964;2022-09-17T15:30:11;5.07;;;1.27;;
44816;SDS011;30529;53.570;9.964;2022-09-17T15:32:55;3.20;;;1.07;;
44816;SDS011;30529;53.570;9.964;2022-09-17T15:37:56;2.23;;;1.10;;
44816;SDS011;30529;53.570;9.964;2022-09-17T15:45:45;2.97;;;1.07;;
44816;SDS011;30529;53.570;9.964;2022-09-17T15:51:01;3.70;;;1.03;;
44816;SDS011;30529;53.570;9.964;2022-09-17T15:53:29;2.67;;;1.00;;
44816;SDS011;30529;53.570;9.964;2022-09-17T15:55:57;1.93;;;1.00;;
44816;SDS011;30529;53.570;9.964;2022-09-17T15:58:52;5.17;;;1.10;;
44816;SDS011;30529;53.570;9.964;2022-09-17T16:08:55;2.30;;;0.70;;
44816;SDS011;30529;53.570;9.964;2022-09-17T16:11:32;2.00;;;0.70;;
44816;SDS011;30529;53.570;9.964;2022-09-17T16:13:59;2.17;;;0.93;;
44816;SDS011;30529;53.570;9.964;2022-09-17T16:16:26;4.00;;;0.80;;
44816;SDS011;30529;53.570;9.964;2022-09-17T16:19:01;4.90;;;1.80;;
44816;SDS011;30529;53.570;9.964;2022-09-17T16:21:28;3.20;;;1.23;;
44816;SDS011;30529;53.570;9.964;2022-09-17T16:23:54;4.43;;;1.10;;
44816;SDS011;30529;53.570;9.964;2022-09-17T16:26:24;2.50;;;1.10;;
44816;SDS011;30529;53.570;9.964;2022-09-17T16:28:58;3.27;;;1.07;;
44816;SDS011;30529;53.570;9.964;2022-09-17T16:31:29;4.43;;;1.10;;
44816;SDS011;30529;53.570;9.964;2022-09-17T16:33:55;3.60;;;1.20;;
44816;SDS011;30529;53.570;9.964;2022-09-17T16:36:22;2.20;;;1.00;;
44816;SDS011;30529;53.570;9.964;2022-09-17T16:38:48;4.43;;;1.10;;
44816;SDS011;30529;53.570;9.964;2022-09-17T16:41:14;3.40;;;1.20;;
44816;SDS011;30529;53.570;9.964;2022-09-17T16:43:40;5.07;;;1.20;;
44816;SDS011;30529;53.570;9.964;2022-09-17T16:46:07;3.70;;;0.90;;
44816;SDS011;30529;53.570;9.964;2022-09-17T16:48:35;3.07;;;1.23;;
44816;SDS011;30529;53.570;9.964;2022-09-17T16:51:06;2.83;;;1.30;;
44816;SDS011;30529;53.570;9.964;2022-09-17T16:53:33;2.17;;;1.30;;
44816;SDS011;30529;53.570;9.964;2022-09-17T16:55:59;5.13;;;1.47;;
44816;SDS011;30529;53.570;9.964;2022-09-17T16:58:25;4.13;;;1.20;;
44816;SDS011;30529;53.570;9.964;2022-09-17T17:00:51;3.20;;;1.10;;
44816;SDS011;30529;53.570;9.964;2022-09-17T17:03:18;3.87;;;1.30;;
44816;SDS011;30529;53.570;9.964;2022-09-17T17:05:44;3.40;;;1.33;;
44816;SDS011;30529;53.570;9.964;2022-09-17T17:08:10;3.20;;;1.30;;
44816;SDS011;30529;53.570;9.964;2022-09-17T17:10:36;3.27;;;1.20;;
44816;SDS011;30529;53.570;9.964;2022-09-17T17:13:03;3.13;;;1.40;;
44816;SDS011;30529;53.570;9.964;2022-09-17T17:15:29;3.60;;;1.10;;
44816;SDS011;30529;53.570;9.964;2022-09-17T17:17:55;5.93;;;1.10;;
44816;SDS011;30529;53.570;9.964;2022-09-17T17:20:22;3.50;;;1.17;;
44816;SDS011;30529;53.570;9.964;2022-09-17T17:22:48;4.93;;;1.60;;
44816;SDS011;30529;53.570;9.964;2022-09-17T17:25:18;2.27;;;1.10;;
44816;SDS011;30529;53.570;9.964;2022-09-17T17:27:44;2.30;;;1.03;;
44816;SDS011;30529;53.570;9.964;2022-09-17T17:30:10;4.30;;;1.37;;
44816;SDS011;30529;53.570;9.964;2022-09-17T17:32:41;2.90;;;1.10;;
44816;SDS011;30529;53.570;9.964;2022-09-17T17:35:08;2.73;;;1.03;;
44816;SDS011;30529;53.570;9.964;2022-09-17T17:37:34;3.97;;;1.33;;
44816;SDS011;30529;53.570;9.964;2022-09-17T17:40:00;4.23;;;1.20;;
44816;SDS011;30529;53.570;9.964;2022-09-17T17:42:33;4.43;;;1.40;;
44816;SDS011;30529;53.570;9.964;2022-09-17T17:45:03;3.93;;;1.53;;
44816;SDS011;30529;53.570;9.964;2022-09-17T17:47:30;4.47;;;1.30;;
44816;SDS011;30529;53.570;9.964;2022-09-17T17:49:56;4.83;;;1.77;;
44816;SDS011;30529;53.570;9.964;2022-09-17T17:52:22;6.57;;;1.60;;
44816;SDS011;30529;53.570;9.964;2022-09-17T17:54:48;4.17;;;1.33;;
44816;SDS011;30529;53.570;9.964;2022-09-17T17:57:14;3.40;;;1.50;;
44816;SDS011;30529;53.570;9.964;2022-09-17T17:59:40;5.53;;;1.57;;
44816;SDS011;30529;53.570;9.964;2022-09-17T18:02:07;3.63;;;1.53;;
44816;SDS011;30529;53.570;9.964;2022-09-17T18:04:34;2.80;;;1.33;;
44816;SDS011;30529;53.570;9.964;2022-09-17T18:07:00;4.87;;;1.40;;
44816;SDS011;30529;53.570;9.964;2022-09-17T18:09:26;3.50;;;1.23;;
44816;SDS011;30529;53.570;9.964;2022-09-17T18:11:52;5.60;;;1.77;;
44816;SDS011;30529;53.570;9.964;2022-09-17T18:14:20;5.27;;;2.43;;
44816;SDS011;30529;53.570;9.964;2022-09-17T18:16:46;5.23;;;1.70;;
44816;SDS011;30529;53.570;9.964;2022-09-17T18:19:13;3.97;;;1.57;;
44816;SDS011;30529;53.570;9.964;2022-09-17T18:21:39;5.43;;;1.40;;
44816;SDS011;30529;53.570;9.964;2022-09-17T18:24:06;3.30;;;1.27;;
44816;SDS011;30529;53.570;9.964;2022-09-17T18:26:32;3.23;;;1.33;;
44816;SDS011;30529;53.570;9.964;2022-09-17T18:28:58;4.43;;;1.23;;
44816;SDS011;30529;53.570;9.964;2022-09-17T18:31:30;2.63;;;1.50;;
44816;SDS011;30529;53.570;9.964;2022-09-17T18:36:31;4.97;;;1.40;;
44816;SDS011;30529;53.570;9.964;2022-09-17T18:38:59;3.30;;;1.60;;
44816;SDS011;30529;53.570;9.964;2022-09-17T18:41:27;3.53;;;1.60;;
44816;SDS011;30529;53.570;9.964;2022-09-17T18:43:54;7.47;;;2.00;;
44816;SDS011;30529;53.570;9.964;2022-09-17T18:46:21;5.50;;;1.60;;
44816;SDS011;30529;53.570;9.964;2022-09-17T18:48:50;8.17;;;2.00;;
44816;SDS011;30529;53.570;9.964;2022-09-17T18:51:17;5.47;;;1.93;;
44816;SDS011;30529;53.570;9.964;2022-09-17T18:53:44;6.27;;;1.83;;
44816;SDS011;30529;53.570;9.964;2022-09-17T18:56:14;3.57;;;1.53;;